Time,TemperatureF,DewpointF,PressureIn,WindDirection,WindDirectionDegrees,WindSpeedMPH,WindSpeedGustMPH,Humidity,HourlyPrecipIn,Conditions,Clouds,dailyrainin,SoftwareType,DateUTC
2013-05-09 00:01:00,52.0,29.0,-100.00,SSW,205,7.0,8.0,41,-99.99,,,0.00,,2013-05-09 06:01:00,
2013-05-09 00:11:00,52.0,29.0,-100.00,SSW,200,6.0,8.0,40,-99.99,,,0.00,,2013-05-09 06:11:00,
2013-05-09 00:21:00,52.0,29.0,-100.00,SSW,200,6.0,8.0,40,-99.99,,,0.00,,2013-05-09 06:21:00,
2013-05-09 00:32:00,52.0,29.0,-100.00,SSW,200,6.0,8.0,40,-99.99,,,0.00,,2013-05-09 06:32:00,
2013-05-09 00:42:00,52.0,29.0,-100.00,SSW,200,6.0,8.0,40,-99.99,,,0.00,,2013-05-09 06:42:00,
2013-05-09 00:52:00,50.0,27.0,-100.00,SW,220,6.0,9.0,42,-99.99,,,-99.99,,2013-05-09 06:52:00,
2013-05-09 01:01:00,50.0,27.0,-100.00,SW,220,6.0,9.0,42,-99.99,,,-99.99,,2013-05-09 07:01:00,
2013-05-09 01:12:00,50.0,27.0,-100.00,SSW,205,6.0,8.0,42,-99.99,,,0.00,,2013-05-09 07:12:00,
2013-05-09 01:21:00,50.0,27.0,-100.00,SSW,205,6.0,8.0,42,-99.99,,,0.00,,2013-05-09 07:21:00,
2013-05-09 01:32:00,50.0,27.0,-100.00,SSW,200,6.0,8.0,41,-99.99,,,0.00,,2013-05-09 07:32:00,
2013-05-09 01:42:00,50.0,27.0,-100.00,SSW,200,6.0,8.0,41,-99.99,,,0.00,,2013-05-09 07:42:00,
2013-05-09 01:52:00,50.0,27.0,-100.00,SW,215,7.0,10.0,40,-99.99,,,0.00,,2013-05-09 07:52:00,
2013-05-09 02:02:00,50.0,27.0,-100.00,SW,215,7.0,10.0,40,-99.99,,,0.00,,2013-05-09 08:02:00,
2013-05-09 02:11:00,50.0,27.0,-100.00,SW,215,6.0,10.0,41,-99.99,,,0.00,,2013-05-09 08:11:00,
2013-05-09 02:21:00,50.0,27.0,-100.00,SW,215,6.0,10.0,41,-99.99,,,0.00,,2013-05-09 08:21:00,
2013-05-09 02:31:00,50.0,27.0,-100.00,SW,215,6.0,10.0,41,-99.99,,,0.00,,2013-05-09 08:31:00,
2013-05-09 02:41:00,50.0,27.0,-100.00,SW,215,6.0,10.0,41,-99.99,,,0.00,,2013-05-09 08:41:00,
2013-05-09 02:51:00,48.0,26.0,-100.00,SSW,210,6.0,9.0,42,-99.99,,,0.00,,2013-05-09 08:51:00,
2013-05-09 03:02:00,48.0,26.0,-100.00,SSW,210,6.0,9.0,42,-99.99,,,0.00,,2013-05-09 09:02:00,
2013-05-09 03:11:00,48.0,26.0,-100.00,SSW,210,6.0,9.0,42,-99.99,,,0.00,,2013-05-09 09:11:00,
2013-05-09 03:32:00,48.0,25.0,-100.00,SW,215,4.0,7.0,40,-99.99,,,0.00,,2013-05-09 09:32:00,
2013-05-09 03:42:00,48.0,25.0,-100.00,SW,215,4.0,7.0,40,-99.99,,,0.00,,2013-05-09 09:42:00,
2013-05-09 03:52:00,48.0,25.0,-100.00,SW,225,4.0,7.0,41,-99.99,,,0.00,,2013-05-09 09:52:00,
2013-05-09 04:02:00,48.0,25.0,-100.00,SW,225,4.0,7.0,41,-99.99,,,0.00,,2013-05-09 10:02:00,
2013-05-09 04:12:00,47.0,25.0,-100.00,SSW,205,2.0,4.0,41,-99.99,,,0.00,,2013-05-09 10:12:00,
2013-05-09 04:22:00,47.0,25.0,-100.00,SSW,205,2.0,4.0,41,-99.99,,,0.00,,2013-05-09 10:22:00,
2013-05-09 04:33:00,47.0,25.0,-100.00,SSW,205,2.0,4.0,41,-99.99,,,0.00,,2013-05-09 10:33:00,
2013-05-09 04:42:00,47.0,25.0,-100.00,SSW,205,2.0,4.0,41,-99.99,,,0.00,,2013-05-09 10:42:00,
2013-05-09 04:52:00,47.0,24.0,-100.00,SSW,210,5.0,7.0,41,-99.99,,,0.00,,2013-05-09 10:52:00,
2013-05-09 05:02:00,47.0,24.0,-100.00,SSW,210,5.0,7.0,41,-99.99,,,0.00,,2013-05-09 11:02:00,
2013-05-09 05:12:00,47.0,24.0,-100.00,SW,215,4.0,6.0,41,-99.99,,,0.00,,2013-05-09 11:12:00,
2013-05-09 05:22:00,47.0,24.0,-100.00,SW,215,4.0,6.0,41,-99.99,,,0.00,,2013-05-09 11:22:00,
2013-05-09 05:32:00,47.0,24.0,-100.00,SW,215,4.0,6.0,41,-99.99,,,0.00,,2013-05-09 11:32:00,
2013-05-09 05:41:00,47.0,24.0,-100.00,SW,215,4.0,6.0,41,-99.99,,,0.00,,2013-05-09 11:41:00,
2013-05-09 05:51:00,48.0,25.0,-100.00,SW,215,3.0,4.0,40,-99.99,,,0.00,,2013-05-09 11:51:00,
2013-05-09 06:01:00,48.0,25.0,-100.00,SW,215,3.0,4.0,40,-99.99,,,0.00,,2013-05-09 12:01:00,
2013-05-09 06:11:00,48.0,23.0,-100.00,SW,220,4.0,4.0,38,-99.99,,,0.00,,2013-05-09 12:11:00,
2013-05-09 06:31:00,47.0,23.0,-100.00,SW,225,4.0,4.0,39,-99.99,,,0.00,,2013-05-09 12:31:00,
2013-05-09 06:51:00,46.0,23.0,-100.00,SW,220,3.0,4.0,40,-99.99,,,0.00,,2013-05-09 12:51:00,
2013-05-09 07:01:00,46.0,23.0,-100.00,SW,220,3.0,4.0,40,-99.99,,,0.00,,2013-05-09 13:01:00,
2013-05-09 07:12:00,46.0,25.0,-100.00,NNW,345,6.0,9.0,43,-99.99,,,0.00,,2013-05-09 13:12:00,
2013-05-09 07:21:00,46.0,25.0,-100.00,NNW,345,6.0,9.0,43,-99.99,,,0.00,,2013-05-09 13:21:00,
2013-05-09 07:32:00,46.0,25.0,-100.00,NNW,345,6.0,9.0,43,-99.99,,,0.00,,2013-05-09 13:32:00,
2013-05-09 07:42:00,46.0,25.0,-100.00,NNW,345,6.0,9.0,43,-99.99,,,0.00,,2013-05-09 13:42:00,
2013-05-09 07:52:00,47.0,27.0,-100.00,NW,305,3.0,6.0,45,-99.99,,,0.00,,2013-05-09 13:52:00,
2013-05-09 08:01:00,47.0,27.0,-100.00,NW,305,3.0,6.0,45,-99.99,,,0.00,,2013-05-09 14:01:00,
2013-05-09 08:11:00,50.0,28.0,-100.00,WSW,240,1.0,2.0,42,-99.99,,,0.00,,2013-05-09 14:11:00,
2013-05-09 08:21:00,50.0,28.0,-100.00,WSW,240,1.0,2.0,42,-99.99,,,0.00,,2013-05-09 14:21:00,
2013-05-09 08:32:00,50.0,28.0,-100.00,WSW,240,1.0,2.0,42,-99.99,,,0.00,,2013-05-09 14:32:00,
2013-05-09 08:41:00,50.0,28.0,-100.00,WSW,240,1.0,2.0,42,-99.99,,,0.00,,2013-05-09 14:41:00,
2013-05-09 08:52:00,54.0,30.0,-100.00,East,85,0.0,1.0,40,-99.99,,,0.00,,2013-05-09 14:52:00,
2013-05-09 09:01:00,54.0,30.0,-100.00,East,85,0.0,1.0,40,-99.99,,,0.00,,2013-05-09 15:01:00,
2013-05-09 09:11:00,53.0,31.0,-100.00,SSE,150,3.0,4.0,43,-99.99,,,0.00,,2013-05-09 15:11:00,
2013-05-09 09:21:00,53.0,31.0,-100.00,SSE,150,3.0,4.0,43,-99.99,,,0.00,,2013-05-09 15:21:00,
2013-05-09 09:33:00,54.0,32.0,-100.00,SSE,165,3.0,5.0,42,-99.99,,,0.00,,2013-05-09 15:33:00,
2013-05-09 09:43:00,54.0,32.0,-100.00,SSE,165,3.0,5.0,42,-99.99,,,0.00,,2013-05-09 15:43:00,
2013-05-09 09:52:00,56.0,32.0,-100.00,South,175,3.0,6.0,40,-99.99,,,0.00,,2013-05-09 15:52:00,
2013-05-09 10:03:00,56.0,32.0,-100.00,South,175,3.0,6.0,40,-99.99,,,0.00,,2013-05-09 16:03:00,
2013-05-09 10:12:00,58.0,32.0,-100.00,SSW,205,4.0,7.0,37,-99.99,,,0.00,,2013-05-09 16:12:00,
2013-05-09 10:22:00,58.0,32.0,-100.00,SSW,205,4.0,7.0,37,-99.99,,,0.00,,2013-05-09 16:22:00,
2013-05-09 10:33:00,59.0,31.0,-100.00,South,185,3.0,6.0,34,-99.99,,,0.00,,2013-05-09 16:33:00,
2013-05-09 10:42:00,59.0,31.0,-100.00,South,185,3.0,6.0,34,-99.99,,,0.00,,2013-05-09 16:42:00,
2013-05-09 10:52:00,64.0,31.0,-100.00,SW,225,3.0,5.0,29,-99.99,,,0.00,,2013-05-09 16:52:00,
2013-05-09 11:02:00,64.0,31.0,-100.00,SW,225,3.0,5.0,29,-99.99,,,0.00,,2013-05-09 17:02:00,
2013-05-09 11:12:00,62.0,30.0,-100.00,ESE,110,0.0,4.0,29,-99.99,,,0.00,,2013-05-09 17:12:00,
2013-05-09 11:21:00,62.0,30.0,-100.00,ESE,110,0.0,4.0,29,-99.99,,,0.00,,2013-05-09 17:21:00,
2013-05-09 11:32:00,66.0,30.0,-100.00,South,185,3.0,6.0,26,-99.99,,,0.00,,2013-05-09 17:32:00,
2013-05-09 11:42:00,66.0,30.0,-100.00,South,185,3.0,6.0,26,-99.99,,,0.00,,2013-05-09 17:42:00,
2013-05-09 11:55:00,66.0,30.0,-100.00,SE,145,1.0,6.0,26,-99.99,,,0.00,,2013-05-09 17:55:00,
2013-05-09 12:01:00,66.0,30.0,-100.00,SE,145,1.0,6.0,26,-99.99,,,0.00,,2013-05-09 18:01:00,
2013-05-09 12:12:00,64.0,30.0,-100.00,North,0,9.0,12.0,28,-99.99,,,0.00,,2013-05-09 18:12:00,
2013-05-09 12:21:00,64.0,30.0,-100.00,North,0,9.0,12.0,28,-99.99,,,0.00,,2013-05-09 18:21:00,
2013-05-09 12:31:00,63.0,31.0,-100.00,North,350,9.0,14.0,30,-99.99,,,0.00,,2013-05-09 18:31:00,
2013-05-09 12:42:00,63.0,31.0,-100.00,North,350,9.0,14.0,30,-99.99,,,0.00,,2013-05-09 18:42:00,
2013-05-09 12:52:00,64.0,32.0,-100.00,North,0,8.0,12.0,30,-99.99,,,0.00,,2013-05-09 18:52:00,
2013-05-09 13:01:00,64.0,32.0,-100.00,North,0,8.0,12.0,30,-99.99,,,0.00,,2013-05-09 19:01:00,
2013-05-09 13:11:00,65.0,29.0,-100.00,NNE,20,9.0,11.0,26,-99.99,,,0.00,,2013-05-09 19:11:00,
2013-05-09 13:21:00,65.0,29.0,-100.00,NNE,20,9.0,11.0,26,-99.99,,,0.00,,2013-05-09 19:21:00,
2013-05-09 13:31:00,65.0,29.0,-100.00,NNE,20,9.0,11.0,26,-99.99,,,0.00,,2013-05-09 19:31:00,
2013-05-09 13:52:00,66.0,30.0,-100.00,South,180,8.0,16.0,25,-99.99,,,0.00,,2013-05-09 19:52:00,
2013-05-09 14:01:00,66.0,30.0,-100.00,South,180,8.0,16.0,25,-99.99,,,0.00,,2013-05-09 20:01:00,
2013-05-09 14:11:00,68.0,31.0,-100.00,SW,215,9.0,14.0,25,-99.99,,,0.00,,2013-05-09 20:11:00,
2013-05-09 14:22:00,68.0,31.0,-100.00,SW,215,9.0,14.0,25,-99.99,,,0.00,,2013-05-09 20:22:00,
2013-05-09 14:32:00,68.0,31.0,-100.00,SW,215,9.0,14.0,25,-99.99,,,0.00,,2013-05-09 20:32:00,
2013-05-09 14:42:00,68.0,31.0,-100.00,SW,215,9.0,14.0,25,-99.99,,,0.00,,2013-05-09 20:42:00,
2013-05-09 14:52:00,68.0,29.0,-100.00,ESE,120,4.0,9.0,23,-99.99,,,0.00,,2013-05-09 20:52:00,
2013-05-09 15:01:00,68.0,29.0,-100.00,ESE,120,4.0,9.0,23,-99.99,,,0.00,,2013-05-09 21:01:00,
2013-05-09 15:11:00,66.0,29.0,-100.00,North,355,4.0,7.0,24,-99.99,,,0.00,,2013-05-09 21:11:00,
2013-05-09 15:52:00,66.0,26.0,-100.00,NW,325,5.0,10.0,22,-99.99,,,0.00,,2013-05-09 21:52:00,
2013-05-09 16:03:00,66.0,26.0,-100.00,NW,325,5.0,10.0,22,-99.99,,,0.00,,2013-05-09 22:03:00,
2013-05-09 16:12:00,60.0,26.0,-100.00,WSW,255,5.0,14.0,27,-99.99,,,0.00,,2013-05-09 22:12:00,
2013-05-09 16:33:00,61.0,26.0,-100.00,East,85,4.0,9.0,27,-99.99,,,0.00,,2013-05-09 22:33:00,
2013-05-09 16:52:00,60.0,29.0,-100.00,SSE,165,7.0,12.0,30,-99.99,,,0.00,,2013-05-09 22:52:00,
2013-05-09 17:02:00,60.0,29.0,-100.00,SSE,165,7.0,12.0,30,-99.99,,,0.00,,2013-05-09 23:02:00,
2013-05-09 17:11:00,56.0,31.0,-100.00,South,190,15.0,29.0,38,-99.99,,,0.00,,2013-05-09 23:11:00,
2013-05-09 17:32:00,55.0,31.0,-100.00,SSW,205,21.0,30.0,40,-99.99,,,0.00,,2013-05-09 23:32:00,
2013-05-09 17:52:00,56.0,31.0,-100.00,SSW,200,17.0,32.0,39,-99.99,,,0.00,,2013-05-09 23:52:00,
2013-05-09 18:01:00,56.0,31.0,-100.00,SSW,200,17.0,32.0,39,-99.99,,,0.00,,2013-05-10 00:01:00,
2013-05-09 18:11:00,57.0,31.0,-100.00,SSW,210,12.0,21.0,37,-99.99,,,0.00,,2013-05-10 00:11:00,
2013-05-09 18:51:00,58.0,31.0,-100.00,SSW,210,11.0,21.0,35,-99.99,,,0.00,,2013-05-10 00:51:00,
2013-05-09 19:01:00,58.0,31.0,-100.00,SSW,210,11.0,21.0,35,-99.99,,,0.00,,2013-05-10 01:01:00,
2013-05-09 19:11:00,60.0,32.0,-100.00,WSW,240,7.0,17.0,34,-99.99,,,0.00,,2013-05-10 01:11:00,
2013-05-09 19:31:00,60.0,32.0,-100.00,WSW,240,7.0,17.0,34,-99.99,,,0.00,,2013-05-10 01:31:00,
2013-05-09 19:52:00,60.0,31.0,-100.00,South,190,3.0,11.0,33,-99.99,,,0.00,,2013-05-10 01:52:00,
2013-05-09 20:01:00,60.0,31.0,-100.00,South,190,3.0,11.0,33,-99.99,,,0.00,,2013-05-10 02:01:00,
2013-05-09 20:11:00,59.0,30.0,-100.00,SW,235,6.0,9.0,33,-99.99,,,0.00,,2013-05-10 02:11:00,
2013-05-09 20:31:00,58.0,30.0,-100.00,SW,225,4.0,9.0,34,-99.99,,,0.00,,2013-05-10 02:31:00,
2013-05-09 20:52:00,57.0,29.0,-100.00,South,185,3.0,7.0,34,-99.99,,,0.00,,2013-05-10 02:52:00,
2013-05-09 21:01:00,57.0,29.0,-100.00,South,185,3.0,7.0,34,-99.99,,,0.00,,2013-05-10 03:01:00,
2013-05-09 21:11:00,54.0,28.0,-100.00,SW,215,5.0,8.0,37,-99.99,,,0.00,,2013-05-10 03:11:00,
2013-05-09 21:32:00,54.0,28.0,-100.00,SSW,205,8.0,11.0,37,-99.99,,,0.00,,2013-05-10 03:32:00,
2013-05-09 21:52:00,53.0,28.0,-100.00,SSW,195,7.0,9.0,38,-99.99,,,0.00,,2013-05-10 03:52:00,
2013-05-09 22:02:00,53.0,28.0,-100.00,SSW,195,7.0,9.0,38,-99.99,,,0.00,,2013-05-10 04:02:00,
2013-05-09 22:12:00,52.0,28.0,-100.00,SSW,205,7.0,10.0,39,-99.99,,,0.00,,2013-05-10 04:12:00,
2013-05-09 22:23:00,52.0,28.0,-100.00,SSW,205,7.0,10.0,39,-99.99,,,0.00,,2013-05-10 04:23:00,
2013-05-09 22:33:00,52.0,28.0,-100.00,SSW,205,7.0,10.0,39,-99.99,,,0.00,,2013-05-10 04:33:00,
2013-05-09 22:42:00,52.0,28.0,-100.00,SSW,205,7.0,10.0,39,-99.99,,,0.00,,2013-05-10 04:42:00,
2013-05-09 22:52:00,52.0,27.0,-100.00,SSW,200,6.0,12.0,39,-99.99,,,0.00,,2013-05-10 04:52:00,
2013-05-09 23:02:00,52.0,27.0,-100.00,SSW,200,6.0,12.0,39,-99.99,,,0.00,,2013-05-10 05:02:00,
2013-05-09 23:12:00,51.0,27.0,-100.00,SW,215,8.0,14.0,38,-99.99,,,0.00,,2013-05-10 05:12:00,
2013-05-09 23:22:00,51.0,27.0,-100.00,SW,215,8.0,14.0,38,-99.99,,,0.00,,2013-05-10 05:22:00,
2013-05-09 23:32:00,51.0,27.0,-100.00,SW,215,8.0,14.0,38,-99.99,,,0.00,,2013-05-10 05:32:00,
2013-05-09 23:42:00,51.0,27.0,-100.00,SW,215,8.0,14.0,38,-99.99,,,0.00,,2013-05-10 05:42:00,
2013-05-09 23:52:00,50.0,26.0,-100.00,SSW,205,8.0,12.0,39,-99.99,,,0.00,,2013-05-10 05:52:00,